Time;durP1;ratioP1;P1;durP2;ratioP2;P2;SDS_P1;SDS_P2;PMS_P1;PMS_P2;Temp;Humidity;BMP_temperature;BMP_pressure;BME280_temperature;BME280_humidity;BME280_pressure;Samples;Min_cycle;Max_cycle;Signal;HPM_P1;HPM_P2
2022/11/16 00:02:29;;;;;;;9.40;5.85;;;;;;;-146.48;100.00;60459.00;5301495;28;20042;-73
2022/11/16 00:05:00;;;;;;;6.85;5.75;;;;;;;-146.48;100.00;60459.00;5302692;28;20024;-74
2022/11/16 00:07:32;;;;;;;7.85;5.45;;;;;;;-146.48;100.00;60459.00;5302097;28;20032;-74
2022/11/16 00:10:03;;;;;;;6.05;5.45;;;;;;;-146.48;100.00;60459.00;5301786;28;20467;-74
2022/11/16 00:12:34;;;;;;;7.72;6.10;;;;;;;-146.48;100.00;60459.00;5302402;28;20478;-74
2022/11/16 00:15:06;;;;;;;7.15;5.80;;;;;;;-146.48;100.00;60459.00;5302864;28;20032;-74
2022/11/16 00:17:38;;;;;;;7.75;5.05;;;;;;;-146.48;100.00;60459.00;5301673;28;20036;-74
2022/11/16 00:20:09;;;;;;;6.47;5.88;;;;;;;-146.48;100.00;60459.00;5302696;28;20031;-74
2022/11/16 00:22:40;;;;;;;7.53;5.95;;;;;;;-146.48;100.00;60459.00;5301086;28;20444;-73
2022/11/16 00:25:12;;;;;;;9.07;6.60;;;;;;;-146.48;100.00;60459.00;5302198;28;20524;-73
2022/11/16 00:27:43;;;;;;;5.88;5.38;;;;;;;-146.48;100.00;60459.00;5302590;28;20360;-72
2022/11/16 00:30:15;;;;;;;6.47;5.88;;;;;;;-146.48;100.00;60459.00;5301637;28;20451;-73
2022/11/16 00:32:46;;;;;;;6.47;5.93;;;;;;;-146.48;100.00;60459.00;5306605;28;20028;-73
2022/11/16 00:35:17;;;;;;;7.10;6.22;;;;;;;-146.48;100.00;60459.00;5305652;28;20056;-73
2022/11/16 00:37:50;;;;;;;6.88;5.18;;;;;;;-146.48;100.00;60459.00;5305727;28;20036;-73
2022/11/16 00:40:22;;;;;;;6.47;5.50;;;;;;;-146.48;100.00;60459.00;5305899;28;20039;-72
2022/11/16 00:42:53;;;;;;;6.82;6.05;;;;;;;-146.48;100.00;60459.00;5306308;28;20031;-72
2022/11/16 00:45:24;;;;;;;7.35;6.43;;;;;;;-146.48;100.00;60459.00;5304892;28;20032;-72
2022/11/16 00:47:55;;;;;;;5.88;5.22;;;;;;;-146.48;100.00;60459.00;5306534;28;20032;-72
2022/11/16 00:50:27;;;;;;;6.80;6.13;;;;;;;-146.48;100.00;60459.00;5305901;28;20043;-73
2022/11/16 00:52:59;;;;;;;6.10;5.50;;;;;;;-146.48;100.00;60459.00;5305855;28;20078;-73
2022/11/16 00:55:30;;;;;;;5.50;5.00;;;;;;;-146.48;100.00;60459.00;5305828;28;20036;-72
2022/11/16 00:58:02;;;;;;;6.57;5.43;;;;;;;-146.48;100.00;60459.00;5305397;28;20032;-74
2022/11/16 01:00:33;;;;;;;6.18;5.28;;;;;;;-146.48;100.00;60459.00;5305742;28;20028;-73
2022/11/16 01:03:04;;;;;;;5.40;4.90;;;;;;;-146.48;100.00;60459.00;5306241;28;20101;-72
2022/11/16 01:05:36;;;;;;;7.90;4.63;;;;;;;-146.48;100.00;60459.00;5304925;28;20138;-72
2022/11/16 01:08:07;;;;;;;5.43;4.90;;;;;;;-146.48;100.00;60459.00;5306151;28;20103;-72
2022/11/16 01:10:39;;;;;;;6.32;4.88;;;;;;;-146.48;100.00;60459.00;5305440;28;20031;-72
2022/11/16 01:13:10;;;;;;;5.47;4.75;;;;;;;-146.48;100.00;60459.00;5305443;28;20059;-72
2022/11/16 01:15:47;;;;;;;5.53;5.03;;;;;;;-146.48;100.00;60459.00;5305447;28;20031;-72
2022/11/16 01:18:18;;;;;;;7.18;5.32;;;;;;;-146.48;100.00;60459.00;5305400;28;20024;-73
2022/11/16 01:20:51;;;;;;;5.35;4.80;;;;;;;-146.48;100.00;60459.00;5305046;28;20051;-72
2022/11/16 01:23:22;;;;;;;5.28;4.78;;;;;;;-146.48;100.00;60459.00;5305156;28;20039;-73
2022/11/16 01:26:00;;;;;;;5.30;4.80;;;;;;;-146.48;100.00;60459.00;5305078;28;20020;-72
2022/11/16 01:28:31;;;;;;;6.30;4.53;;;;;;;-146.48;100.00;60459.00;5305195;28;20491;-72
2022/11/16 01:31:03;;;;;;;4.55;4.18;;;;;;;-146.48;100.00;60459.00;5305657;28;20019;-73
2022/11/16 01:33:34;;;;;;;6.10;4.03;;;;;;;-146.48;100.00;60459.00;5303898;28;20020;-72
2022/11/16 01:36:13;;;;;;;4.10;3.55;;;;;;;-146.48;100.00;60459.00;5305653;28;20020;-72
2022/11/16 01:38:45;;;;;;;6.22;4.22;;;;;;;-146.48;100.00;60459.00;5305482;28;20026;-72
2022/11/16 01:41:20;;;;;;;5.45;4.80;;;;;;;-146.48;100.00;60459.00;5303805;28;20490;-72
2022/11/16 01:44:02;;;;;;;6.28;4.57;;;;;;;-146.48;100.00;60459.00;5304275;28;20102;-72
2022/11/16 01:46:33;;;;;;;5.22;4.72;;;;;;;-146.48;100.00;60459.00;5304921;28;20024;-72
2022/11/16 01:49:12;;;;;;;5.30;4.18;;;;;;;-146.48;100.00;60459.00;5304458;28;20025;-72
2022/11/16 01:51:48;;;;;;;5.97;4.40;;;;;;;-146.48;100.00;60459.00;5305360;28;20035;-72
2022/11/16 01:54:19;;;;;;;5.40;4.43;;;;;;;-146.48;100.00;60459.00;5303716;28;20031;-71
2022/11/16 01:56:52;;;;;;;5.40;4.03;;;;;;;-146.48;100.00;60459.00;5305471;28;20032;-72
2022/11/16 01:59:24;;;;;;;7.93;5.07;;;;;;;-146.48;100.00;60459.00;5304724;28;20032;-72
2022/11/16 02:01:58;;;;;;;5.40;4.90;;;;;;;-146.48;100.00;60459.00;5304030;28;20028;-71
2022/11/16 02:04:29;;;;;;;5.50;4.82;;;;;;;-146.48;100.00;60459.00;5304255;28;20585;-72
2022/11/16 02:07:15;;;;;;;6.07;4.75;;;;;;;-146.48;100.00;60459.00;5305103;28;20127;-72
2022/11/16 02:10:24;;;;;;;5.95;5.13;;;;;;;-146.48;100.00;60459.00;5304152;28;20024;-72
2022/11/16 02:13:07;;;;;;;5.30;4.80;;;;;;;-146.48;100.00;60459.00;5304753;28;20473;-72
2022/11/16 02:16:10;;;;;;;4.90;4.40;;;;;;;-146.48;100.00;60459.00;5303563;28;20032;-72
2022/11/16 02:18:54;;;;;;;6.32;5.22;;;;;;;-146.48;100.00;60459.00;5303227;28;20550;-72
2022/11/16 02:21:40;;;;;;;8.75;5.32;;;;;;;-146.48;100.00;60459.00;5303860;28;20028;-72
2022/11/16 02:24:41;;;;;;;6.03;5.03;;;;;;;-146.48;100.00;60459.00;5303843;28;20024;-72
2022/11/16 02:27:31;;;;;;;8.77;4.97;;;;;;;-146.48;100.00;60459.00;5304056;28;20035;-72
2022/11/16 02:30:04;;;;;;;5.57;5.07;;;;;;;-146.48;100.00;60459.00;5303922;28;20035;-72
2022/11/16 02:32:41;;;;;;;9.00;5.18;;;;;;;-146.48;100.00;60459.00;5303876;28;20052;-73
2022/11/16 02:35:25;;;;;;;6.05;4.80;;;;;;;-146.48;100.00;60459.00;5303443;28;20044;-74
2022/11/16 02:38:05;;;;;;;5.35;4.13;;;;;;;-146.48;100.00;60459.00;5303215;28;20054;-71
2022/11/16 02:40:42;;;;;;;5.43;3.63;;;;;;;-146.48;100.00;60459.00;5303568;28;20024;-72
2022/11/16 02:43:20;;;;;;;4.45;3.05;;;;;;;-146.48;100.00;60459.00;5302969;28;20053;-73
2022/11/16 02:45:56;;;;;;;5.88;3.40;;;;;;;-146.48;100.00;60459.00;5304269;28;20060;-73
2022/11/16 02:48:34;;;;;;;3.63;3.15;;;;;;;-146.48;100.00;60459.00;5303904;28;20384;-73
2022/11/16 02:51:06;;;;;;;4.63;2.70;;;;;;;-146.48;100.00;60459.00;5303525;28;20387;-72
2022/11/16 02:53:50;;;;;;;3.30;3.03;;;;;;;-146.48;100.00;60459.00;5303012;28;20024;-73
2022/11/16 02:56:22;;;;;;;4.38;3.58;;;;;;;-146.48;100.00;60459.00;5303511;28;20498;-73
2022/11/16 02:58:55;;;;;;;3.88;3.47;;;;;;;-146.48;100.00;60459.00;5303133;28;20028;-74
2022/11/16 03:01:33;;;;;;;4.53;3.97;;;;;;;-146.48;100.00;60459.00;5303337;28;20027;-73
2022/11/16 03:04:15;;;;;;;3.70;2.70;;;;;;;-146.48;100.00;60459.00;5303911;28;20035;-72
2022/11/16 03:06:50;;;;;;;3.70;2.63;;;;;;;-146.48;100.00;60459.00;5303674;28;20032;-72
2022/11/16 03:09:27;;;;;;;2.42;2.22;;;;;;;-146.48;100.00;60459.00;5302944;28;20054;-72
2022/11/16 03:12:04;;;;;;;3.00;1.90;;;;;;;-146.48;100.00;60459.00;5303087;28;20522;-72
2022/11/16 03:14:35;;;;;;;2.65;1.98;;;;;;;-146.48;100.00;60459.00;5303288;28;20489;-73
2022/11/16 03:17:13;;;;;;;3.85;1.70;;;;;;;-146.48;100.00;60459.00;5303590;28;20036;-73
2022/11/16 03:20:03;;;;;;;2.03;1.40;;;;;;;-146.48;100.00;60459.00;5302890;28;20050;-74
2022/11/16 03:22:43;;;;;;;1.80;1.10;;;;;;;-146.48;100.00;60459.00;5302989;28;20421;-73
2022/11/16 03:25:18;;;;;;;1.50;0.98;;;;;;;-146.48;100.00;60459.00;5302303;28;20039;-73
2022/11/16 03:27:58;;;;;;;1.73;1.00;;;;;;;-146.48;100.00;60459.00;5303202;28;20020;-73
2022/11/16 03:30:35;;;;;;;1.63;0.98;;;;;;;-146.48;100.00;60459.00;5302813;28;20104;-72
2022/11/16 03:33:21;;;;;;;1.67;0.70;;;;;;;-146.48;100.00;60459.00;5302435;28;20071;-72
2022/11/16 03:36:12;;;;;;;2.35;0.70;;;;;;;-146.48;100.00;60459.00;5303117;28;20048;-72
2022/11/16 03:38:46;;;;;;;1.17;0.50;;;;;;;-146.48;100.00;60459.00;5302972;28;20024;-72
2022/11/16 03:41:20;;;;;;;2.60;0.55;;;;;;;-146.48;100.00;60459.00;5302068;28;20480;-73
2022/11/16 03:43:54;;;;;;;1.77;0.40;;;;;;;-146.48;100.00;60459.00;5303117;28;20028;-73
2022/11/16 03:46:26;;;;;;;1.25;0.45;;;;;;;-146.48;100.00;60459.00;5301864;28;20024;-73
2022/11/16 03:48:59;;;;;;;1.20;0.50;;;;;;;-146.48;100.00;60459.00;5303087;28;20024;-73
2022/11/16 03:51:30;;;;;;;1.90;0.60;;;;;;;-146.48;100.00;60459.00;5302398;28;20068;-73
2022/11/16 03:54:02;;;;;;;1.25;0.52;;;;;;;-146.48;100.00;60459.00;5302108;28;20485;-73
2022/11/16 03:56:33;;;;;;;2.47;0.70;;;;;;;-146.48;100.00;60459.00;5302560;28;20429;-73
2022/11/16 03:59:04;;;;;;;2.35;0.73;;;;;;;-146.48;100.00;60459.00;5302961;28;20047;-73
2022/11/16 04:01:36;;;;;;;2.83;0.63;;;;;;;-146.48;100.00;60459.00;5301523;28;20063;-73
2022/11/16 04:24:10;;;;;;;1.65;0.95;;;;;;;-146.48;100.00;60459.00;5303165;28;20078;-73
2022/11/16 04:24:26;;;;;;;3.08;0.70;;;;;;;-146.48;100.00;60459.00;5306369;28;20036;-73
2022/11/16 04:29:53;;;;;;;3.60;0.60;;;;;;;-146.48;100.00;60459.00;5306190;28;20399;-73
2022/11/16 04:38:04;;;;;;;1.92;0.60;;;;;;;-146.48;100.00;60459.00;5306630;28;20040;-73
2022/11/16 04:40:36;;;;;;;1.70;0.60;;;;;;;-146.48;100.00;60459.00;5305956;28;20024;-73
2022/11/16 04:43:07;;;;;;;2.97;0.80;;;;;;;-146.48;100.00;60459.00;5305633;28;20460;-73
2022/11/16 04:48:28;;;;;;;1.60;0.60;;;;;;;-146.48;100.00;60459.00;5305896;28;20484;-72
2022/11/16 04:50:59;;;;;;;3.72;0.80;;;;;;;-146.48;100.00;60459.00;5305642;28;20020;-73
2022/11/16 04:53:30;;;;;;;4.07;0.68;;;;;;;-146.48;100.00;60459.00;5305707;28;20028;-73
2022/11/16 04:56:02;;;;;;;2.50;0.63;;;;;;;-146.48;100.00;60459.00;5306573;28;20028;-73
2022/11/16 04:58:33;;;;;;;2.35;0.70;;;;;;;-146.48;100.00;60459.00;5304792;28;20035;-72
2022/11/16 05:01:04;;;;;;;2.25;0.90;;;;;;;-146.48;100.00;60459.00;5306104;28;20478;-73
2022/11/16 05:03:35;;;;;;;2.97;0.93;;;;;;;-146.48;100.00;60459.00;5305620;28;20397;-73
2022/11/16 05:06:07;;;;;;;2.55;1.02;;;;;;;-146.48;100.00;60459.00;5305246;28;20356;-72
2022/11/16 05:08:38;;;;;;;2.97;1.02;;;;;;;-146.48;100.00;60459.00;5305286;28;20382;-72
2022/11/16 05:11:09;;;;;;;4.95;1.30;;;;;;;-146.48;100.00;60459.00;5305329;28;20360;-72
2022/11/16 05:13:40;;;;;;;2.67;1.00;;;;;;;-146.48;100.00;60459.00;5305308;28;20111;-73
2022/11/16 05:16:12;;;;;;;4.32;1.10;;;;;;;-146.48;100.00;60459.00;5305383;28;20425;-73
2022/11/16 05:18:43;;;;;;;3.03;0.88;;;;;;;-146.48;100.00;60459.00;5305285;28;20367;-73
2022/11/16 05:21:14;;;;;;;4.10;1.00;;;;;;;-146.48;100.00;60459.00;5305276;28;20027;-73
2022/11/16 05:26:35;;;;;;;4.82;0.82;;;;;;;-146.48;100.00;60459.00;5304608;28;20028;-73
2022/11/16 05:29:07;;;;;;;2.75;0.95;;;;;;;-146.48;100.00;60459.00;5305883;28;20427;-73
2022/11/16 05:31:38;;;;;;;5.07;1.27;;;;;;;-146.48;100.00;60459.00;5305221;28;20024;-72
2022/11/16 05:34:10;;;;;;;3.10;1.00;;;;;;;-146.48;100.00;60459.00;5304596;28;20048;-72
2022/11/16 05:36:41;;;;;;;4.20;0.93;;;;;;;-146.48;100.00;60459.00;5304932;28;20107;-73
2022/11/16 05:39:12;;;;;;;4.57;1.30;;;;;;;-146.48;100.00;60459.00;5303986;28;20061;-73
2022/11/16 05:41:44;;;;;;;2.33;0.77;;;;;;;-146.48;100.00;60459.00;5305648;28;20040;-73
2022/11/16 05:44:16;;;;;;;5.18;1.10;;;;;;;-146.48;100.00;60459.00;5304952;28;20476;-73
2022/11/16 05:46:48;;;;;;;7.13;0.98;;;;;;;-146.48;100.00;60459.00;5304694;28;20028;-72
2022/11/16 05:49:19;;;;;;;2.60;1.20;;;;;;;-146.48;100.00;60459.00;5304570;28;20435;-73
2022/11/16 05:51:51;;;;;;;5.28;1.67;;;;;;;-146.48;100.00;60459.00;5305215;28;20052;-73
2022/11/16 05:54:24;;;;;;;3.92;1.25;;;;;;;-146.48;100.00;60459.00;5303926;28;20081;-72
2022/11/16 05:56:56;;;;;;;4.75;1.27;;;;;;;-146.48;100.00;60459.00;5305278;28;20024;-73
2022/11/16 05:59:28;;;;;;;3.85;1.30;;;;;;;-146.48;100.00;60459.00;5304471;28;20054;-73
2022/11/16 06:02:00;;;;;;;4.57;1.20;;;;;;;-146.48;100.00;60459.00;5304595;28;20028;-73
2022/11/16 06:04:32;;;;;;;5.43;1.30;;;;;;;-146.48;100.00;60459.00;5304614;28;20024;-73
2022/11/16 06:07:03;;;;;;;5.93;1.20;;;;;;;-146.48;100.00;60459.00;5303951;28;20055;-74
2022/11/16 06:09:34;;;;;;;3.45;1.20;;;;;;;-146.48;100.00;60459.00;5304191;28;20455;-73
2022/11/16 06:12:08;;;;;;;6.05;2.05;;;;;;;-146.48;100.00;60459.00;5304976;28;20349;-73
2022/11/16 06:14:39;;;;;;;4.78;2.00;;;;;;;-146.48;100.00;60459.00;5303166;28;20032;-74
2022/11/16 06:17:13;;;;;;;5.47;1.95;;;;;;;-146.48;100.00;60459.00;5304486;28;20387;-74
2022/11/16 06:19:44;;;;;;;5.30;1.42;;;;;;;-146.48;100.00;60459.00;5304778;28;20395;-74
2022/11/16 06:22:15;;;;;;;3.00;1.85;;;;;;;-146.48;100.00;60459.00;5303115;28;20032;-74
2022/11/16 06:24:47;;;;;;;6.93;1.67;;;;;;;-146.48;100.00;60459.00;5304445;28;20027;-74
2022/11/16 06:27:18;;;;;;;3.30;1.50;;;;;;;-146.48;100.00;60459.00;5303668;28;20388;-74
2022/11/16 06:29:49;;;;;;;5.43;1.88;;;;;;;-146.48;100.00;60459.00;5302837;28;20154;-74
2022/11/16 06:32:21;;;;;;;5.43;1.80;;;;;;;-146.48;100.00;60459.00;5303869;28;20392;-74
2022/11/16 06:34:53;;;;;;;5.40;1.83;;;;;;;-146.48;100.00;60459.00;5304092;28;20127;-74
2022/11/16 06:37:24;;;;;;;3.42;1.45;;;;;;;-146.48;100.00;60459.00;5302829;28;20475;-74
2022/11/16 06:39:56;;;;;;;4.82;1.42;;;;;;;-146.48;100.00;60459.00;5303873;28;20039;-73
2022/11/16 06:42:27;;;;;;;3.85;1.40;;;;;;;-146.48;100.00;60459.00;5302746;28;20409;-73
2022/11/16 06:44:58;;;;;;;5.22;1.10;;;;;;;-146.48;100.00;60459.00;5304053;28;20056;-74
2022/11/16 06:47:29;;;;;;;4.75;1.48;;;;;;;-146.48;100.00;60459.00;5303282;28;20024;-73
2022/11/16 06:50:01;;;;;;;4.55;1.20;;;;;;;-146.48;100.00;60459.00;5303071;28;20028;-73
2022/11/16 06:52:32;;;;;;;4.85;1.42;;;;;;;-146.48;100.00;60459.00;5303222;28;20020;-73
2022/11/16 06:55:04;;;;;;;4.82;1.52;;;;;;;-146.48;100.00;60459.00;5303559;28;20056;-74
2022/11/16 06:57:35;;;;;;;6.22;1.15;;;;;;;-146.48;100.00;60459.00;5302447;28;20362;-73
2022/11/16 07:00:09;;;;;;;5.45;1.20;;;;;;;-146.48;100.00;60459.00;5303547;28;20032;-75
2022/11/16 07:02:40;;;;;;;7.57;1.98;;;;;;;-146.48;100.00;60459.00;5302999;28;20043;-74
2022/11/16 07:05:12;;;;;;;4.65;1.55;;;;;;;-146.48;100.00;60459.00;5302729;28;20036;-74
2022/11/16 07:07:43;;;;;;;3.33;1.00;;;;;;;-146.48;100.00;60459.00;5303565;28;20108;-75
2022/11/16 07:10:14;;;;;;;3.22;0.90;;;;;;;-146.48;100.00;60459.00;5303027;28;20028;-74
2022/11/16 07:12:46;;;;;;;7.82;1.33;;;;;;;-146.48;100.00;60459.00;5302744;28;20031;-74
2022/11/16 07:15:18;;;;;;;3.90;1.10;;;;;;;-146.48;100.00;60459.00;5302572;28;20067;-74
2022/11/16 07:17:49;;;;;;;4.82;1.48;;;;;;;-146.48;100.00;60459.00;5302499;28;20078;-75
2022/11/16 07:20:21;;;;;;;7.82;1.50;;;;;;;-146.48;100.00;60459.00;5302477;28;20053;-75
2022/11/16 07:22:52;;;;;;;5.65;1.90;;;;;;;-146.48;100.00;60459.00;5303089;28;20047;-74
2022/11/16 07:25:24;;;;;;;5.25;1.90;;;;;;;-146.48;100.00;60459.00;5301420;28;20024;-76
2022/11/16 07:27:57;;;;;;;8.35;2.83;;;;;;;-146.48;100.00;60459.00;5302931;28;20020;-75
2022/11/16 07:30:29;;;;;;;7.90;3.35;;;;;;;-146.48;100.00;60459.00;5302481;28;20412;-75
2022/11/16 07:33:00;;;;;;;11.07;3.58;;;;;;;-146.48;100.00;60459.00;5302137;28;20107;-74
2022/11/16 07:35:31;;;;;;;8.68;3.33;;;;;;;-146.48;100.00;60459.00;5302025;28;20070;-75
2022/11/16 07:38:02;;;;;;;9.90;3.45;;;;;;;-146.48;100.00;60459.00;5302663;28;20035;-75
2022/11/16 07:40:34;;;;;;;9.65;4.15;;;;;;;-146.48;100.00;60459.00;5300438;28;20430;-74
2022/11/16 07:43:05;;;;;;;7.13;3.50;;;;;;;-146.48;100.00;60459.00;5302816;28;20054;-74
2022/11/16 07:45:37;;;;;;;11.27;4.22;;;;;;;-146.48;100.00;60459.00;5301257;28;20020;-74
2022/11/16 07:48:08;;;;;;;8.15;4.00;;;;;;;-146.48;100.00;60459.00;5302691;28;20028;-74
2022/11/16 07:50:39;;;;;;;11.75;4.03;;;;;;;-146.48;100.00;60459.00;5301978;28;20032;-74
2022/11/16 07:53:10;;;;;;;10.68;3.15;;;;;;;-146.48;100.00;60459.00;5301620;28;20487;-74
2022/11/16 07:55:42;;;;;;;10.63;3.47;;;;;;;-146.48;100.00;60459.00;5302194;28;20416;-75
2022/11/16 07:58:13;;;;;;;9.63;3.10;;;;;;;-146.48;100.00;60459.00;5301785;28;20048;-75
2022/11/16 08:00:44;;;;;;;8.60;2.90;;;;;;;-146.48;100.00;60459.00;5301732;28;20043;-75
2022/11/16 08:03:16;;;;;;;8.15;2.85;;;;;;;-146.48;100.00;60459.00;5301968;28;20039;-76
2022/11/16 08:05:47;;;;;;;5.95;2.45;;;;;;;-146.48;100.00;60459.00;5302826;28;20024;-75
2022/11/16 08:08:18;;;;;;;6.65;1.95;;;;;;;-146.48;100.00;60459.00;5301104;28;20112;-76
2022/11/16 08:10:49;;;;;;;5.05;1.58;;;;;;;-146.48;100.00;60459.00;5302470;28;20036;-77
2022/11/16 08:13:21;;;;;;;8.88;1.58;;;;;;;-146.48;100.00;60459.00;5301729;28;20429;-76
2022/11/16 08:15:52;;;;;;;7.20;1.30;;;;;;;-146.48;100.00;60459.00;5301444;28;20387;-75
2022/11/16 08:18:23;;;;;;;8.27;1.80;;;;;;;-146.48;100.00;60459.00;5302098;28;20495;-76
2022/11/16 08:20:57;;;;;;;8.75;1.25;;;;;;;-146.48;100.00;60459.00;5301704;28;20429;-75
2022/11/16 08:23:29;;;;;;;6.85;1.00;;;;;;;-146.48;100.00;60459.00;5302010;28;20032;-75
2022/11/16 08:26:04;;;;;;;7.40;1.25;;;;;;;-146.48;100.00;60459.00;5302539;28;20039;-76
2022/11/16 08:28:36;;;;;;;6.53;0.90;;;;;;;-146.48;100.00;60459.00;5301100;28;20028;-75
2022/11/16 08:31:13;;;;;;;8.07;1.15;;;;;;;-146.48;100.00;60459.00;5302303;28;20042;-75
2022/11/16 08:33:44;;;;;;;5.85;1.20;;;;;;;-146.48;100.00;60459.00;5302335;28;20043;-74
2022/11/16 08:36:16;;;;;;;5.75;0.85;;;;;;;-146.48;100.00;60459.00;5300690;28;20028;-75
2022/11/16 08:38:49;;;;;;;9.70;1.00;;;;;;;-146.48;100.00;60459.00;5302305;28;20447;-75
2022/11/16 08:41:20;;;;;;;6.45;0.73;;;;;;;-146.48;100.00;60459.00;5301737;28;20035;-75
2022/11/16 08:43:52;;;;;;;6.90;0.90;;;;;;;-146.48;100.00;60459.00;5301308;28;20028;-75
2022/11/16 08:46:24;;;;;;;8.15;1.08;;;;;;;-146.48;100.00;60459.00;5301643;28;20032;-75
2022/11/16 08:48:56;;;;;;;6.88;0.98;;;;;;;-146.48;100.00;60459.00;5301425;28;20043;-76
2022/11/16 08:51:27;;;;;;;9.13;1.23;;;;;;;-146.48;100.00;60459.00;5302568;28;20065;-75
2022/11/16 08:54:00;;;;;;;5.80;0.82;;;;;;;-146.48;100.00;60459.00;5306210;28;20024;-75
2022/11/16 08:56:32;;;;;;;5.30;0.57;;;;;;;-146.48;100.00;60459.00;5304824;28;20039;-75
2022/11/16 08:59:03;;;;;;;9.73;1.60;;;;;;;-146.48;100.00;60459.00;5306035;28;20028;-75
2022/11/16 09:01:34;;;;;;;7.55;1.23;;;;;;;-146.48;100.00;60459.00;5305034;28;20047;-75
2022/11/16 09:04:05;;;;;;;8.13;1.00;;;;;;;-146.48;100.00;60459.00;5305367;28;20432;-75
2022/11/16 09:06:37;;;;;;;4.68;1.25;;;;;;;-146.48;100.00;60459.00;5305585;28;20103;-76
2022/11/16 09:09:08;;;;;;;6.88;1.35;;;;;;;-146.48;100.00;60459.00;5304741;28;20028;-75
2022/11/16 09:11:39;;;;;;;5.50;0.80;;;;;;;-146.48;100.00;60459.00;5304523;28;20040;-74
2022/11/16 09:14:11;;;;;;;7.20;0.90;;;;;;;-146.48;100.00;60459.00;5305679;28;20451;-76
2022/11/16 09:16:42;;;;;;;5.70;0.80;;;;;;;-146.48;100.00;60459.00;5305562;28;20083;-75
2022/11/16 09:19:13;;;;;;;4.88;0.90;;;;;;;-146.48;100.00;60459.00;5304102;28;20118;-75
2022/11/16 09:21:45;;;;;;;8.27;0.93;;;;;;;-146.48;100.00;60459.00;5305596;28;20027;-75
2022/11/16 09:24:16;;;;;;;7.07;1.00;;;;;;;-146.48;100.00;60459.00;5304100;28;20436;-76
2022/11/16 09:26:47;;;;;;;6.97;1.10;;;;;;;-146.48;100.00;60459.00;5305399;28;20360;-75
2022/11/16 09:29:19;;;;;;;10.00;1.40;;;;;;;-146.48;100.00;60459.00;5305142;28;20475;-74
2022/11/16 09:31:50;;;;;;;6.03;0.70;;;;;;;-146.48;100.00;60459.00;5304658;28;20467;-74
2022/11/16 09:34:21;;;;;;;10.15;0.88;;;;;;;-146.48;100.00;60459.00;5304546;28;20444;-74
2022/11/16 09:36:53;;;;;;;7.57;0.93;;;;;;;-146.48;100.00;60459.00;5304936;28;20490;-74
2022/11/16 09:39:24;;;;;;;7.07;0.73;;;;;;;-146.48;100.00;60459.00;5304126;28;20379;-74
2022/11/16 09:42:14;;;;;;;5.20;0.80;;;;;;;-146.48;100.00;60459.00;5305003;28;20062;-73
2022/11/16 09:45:13;;;;;;;7.40;0.50;;;;;;;-146.48;100.00;60459.00;5304917;28;20064;-74
2022/11/16 09:47:48;;;;;;;;;;;;;;;-146.48;100.00;60459.00;5302553;28;20036;-73
2022/11/16 09:50:29;;;;;;;7.93;0.60;;;;;;;-146.48;100.00;60459.00;5304089;28;19958;-72
2022/11/16 09:53:27;;;;;;;6.30;0.60;;;;;;;-146.48;100.00;60459.00;5303734;28;20036;-72
2022/11/16 09:56:03;;;;;;;5.57;0.73;;;;;;;-146.48;100.00;60459.00;5293843;28;20043;-73
2022/11/16 09:58:44;;;;;;;8.38;0.68;;;;;;;-146.48;100.00;60459.00;5304049;28;20055;-73
2022/11/16 10:01:51;;;;;;;8.48;1.13;;;;;;;-146.48;100.00;60459.00;5303718;28;20031;-73
2022/11/16 10:04:35;;;;;;;4.50;0.50;;;;;;;-146.48;100.00;60459.00;5299917;28;20449;-72
2022/11/16 10:07:14;;;;;;;3.83;0.47;;;;;;;-146.48;100.00;60459.00;5304193;28;20479;-75
2022/11/16 10:09:46;;;;;;;5.80;0.80;;;;;;;-146.48;100.00;60459.00;5304914;28;20031;-75
2022/11/16 10:12:35;;;;;;;6.07;0.70;;;;;;;-146.48;100.00;60459.00;5303931;28;20032;-74
2022/11/16 10:15:18;;;;;;;8.70;0.65;;;;;;;-146.48;100.00;60459.00;5303989;28;20429;-73
2022/11/16 10:18:02;;;;;;;4.63;0.68;;;;;;;-146.48;100.00;60459.00;5304400;28;20020;-74
2022/11/16 10:20:50;;;;;;;5.15;0.60;;;;;;;-146.48;100.00;60459.00;5303274;28;20479;-73
2022/11/16 10:23:59;;;;;;;6.38;0.85;;;;;;;-146.48;100.00;60459.00;5303842;28;20544;-73
2022/11/16 10:26:33;;;;;;;;;;;;;;;-146.48;100.00;60459.00;5304182;28;20028;-73
2022/11/16 10:29:32;;;;;;;5.35;0.95;;;;;;;-146.48;100.00;60459.00;5303810;28;20325;-73
2022/11/16 10:32:24;;;;;;;;;;;;;;;-146.48;100.00;60459.00;5304690;28;20479;-72
2022/11/16 10:35:11;;;;;;;4.90;0.60;;;;;;;-146.48;100.00;60459.00;5303184;28;20371;-74
2022/11/16 10:37:46;;;;;;;8.15;0.50;;;;;;;-146.48;100.00;60459.00;5304251;28;20039;-73
2022/11/16 10:40:34;;;;;;;6.25;0.70;;;;;;;-146.48;100.00;60459.00;5303624;28;20059;-74
2022/11/16 10:43:16;;;;;;;6.50;0.50;;;;;;;-146.48;100.00;60459.00;5303137;28;20113;-74
2022/11/16 10:45:59;;;;;;;5.60;0.77;;;;;;;-146.48;100.00;60459.00;5304159;28;20042;-74
2022/11/16 10:48:38;;;;;;;3.95;0.50;;;;;;;-146.48;100.00;60459.00;5302785;28;20031;-74
2022/11/16 10:51:09;;;;;;;4.10;0.55;;;;;;;-146.48;100.00;60459.00;5304334;28;20368;-74
2022/11/16 10:53:43;;;;;;;3.72;0.40;;;;;;;-146.48;100.00;60459.00;5303237;28;20036;-74
2022/11/16 10:56:33;;;;;;;5.47;0.47;;;;;;;-146.48;100.00;60459.00;5302369;28;20027;-74
2022/11/16 10:59:07;;;;;;;5.80;0.55;;;;;;;-146.48;100.00;60459.00;5304090;28;20028;-73
2022/11/16 11:01:42;;;;;;;3.22;0.30;;;;;;;-146.48;100.00;60459.00;5303085;28;20045;-74
2022/11/16 11:04:15;;;;;;;4.28;0.40;;;;;;;-146.48;100.00;60459.00;5302217;28;20497;-74
2022/11/16 11:06:52;;;;;;;2.70;0.50;;;;;;;-146.48;100.00;60459.00;5303939;28;20023;-74
2022/11/16 11:09:31;;;;;;;5.15;0.40;;;;;;;-146.48;100.00;60459.00;5302841;28;20035;-75
2022/11/16 11:12:38;;;;;;;2.85;0.30;;;;;;;-146.48;100.00;60459.00;5303474;28;20097;-73
2022/11/16 11:15:10;;;;;;;3.83;0.30;;;;;;;-146.48;100.00;60459.00;5303441;28;20110;-73
2022/11/16 11:17:44;;;;;;;5.30;0.40;;;;;;;-146.48;100.00;60459.00;5302189;28;20103;-73
2022/11/16 11:20:15;;;;;;;4.28;0.40;;;;;;;-146.48;100.00;60459.00;5302614;28;20028;-74
2022/11/16 11:22:55;;;;;;;6.13;1.23;;;;;;;-146.48;100.00;60459.00;5303322;28;20380;-73
2022/11/16 11:25:33;;;;;;;3.50;0.40;;;;;;;-146.48;100.00;60459.00;5302059;28;20566;-73
2022/11/16 11:28:06;;;;;;;3.67;0.50;;;;;;;-146.48;100.00;60459.00;5303368;28;20089;-73
2022/11/16 11:30:38;;;;;;;5.10;0.60;;;;;;;-146.48;100.00;60459.00;5301729;28;20036;-73
2022/11/16 11:33:11;;;;;;;4.60;0.40;;;;;;;-146.48;100.00;60459.00;5303269;28;20418;-73
2022/11/16 11:35:42;;;;;;;5.47;0.70;;;;;;;-146.48;100.00;60459.00;5302679;28;20150;-73
2022/11/16 11:38:14;;;;;;;2.83;0.35;;;;;;;-146.48;100.00;60459.00;5301820;28;20028;-74
2022/11/16 11:40:56;;;;;;;5.45;0.88;;;;;;;-146.48;100.00;60459.00;5303113;28;20460;-73
2022/11/16 11:43:28;;;;;;;4.10;0.40;;;;;;;-146.48;100.00;60459.00;5302274;28;20056;-73
2022/11/16 11:46:10;;;;;;;8.07;0.65;;;;;;;-146.48;100.00;60459.00;5301869;28;20474;-73
2022/11/16 11:48:56;;;;;;;5.35;0.60;;;;;;;-146.48;100.00;60459.00;5302194;28;20039;-73
2022/11/16 11:51:35;;;;;;;3.95;0.60;;;;;;;-146.48;100.00;60459.00;5302005;28;20039;-74
2022/11/16 11:54:13;;;;;;;;;;;;;;;-146.48;100.00;60459.00;5302431;28;20031;-72
2022/11/16 11:56:44;;;;;;;5.22;0.40;;;;;;;-146.48;100.00;60459.00;5302792;28;19912;-75
2022/11/16 11:59:20;;;;;;;5.28;0.93;;;;;;;-146.48;100.00;60459.00;5301480;28;20491;-76
2022/11/16 12:02:01;;;;;;;3.80;0.45;;;;;;;-146.48;100.00;60459.00;5302230;28;20028;-71
2022/11/16 12:04:51;;;;;;;5.22;0.40;;;;;;;-146.48;100.00;60459.00;5301998;28;20036;-73
2022/11/16 12:08:00;;;;;;;4.85;0.43;;;;;;;-146.48;100.00;60459.00;5301177;28;20035;-75
2022/11/16 12:10:45;;;;;;;6.20;0.43;;;;;;;-146.48;100.00;60459.00;5302121;28;20403;-75
2022/11/16 12:13:22;;;;;;;6.60;0.50;;;;;;;-146.48;100.00;60459.00;5301148;28;20028;-74
2022/11/16 12:16:32;;;;;;;1.88;0.30;;;;;;;-146.48;100.00;60459.00;5302480;28;20063;-74
2022/11/16 12:19:10;;;;;;;2.80;0.30;;;;;;;-146.48;100.00;60459.00;5292887;28;20466;-74